Helmsdale, United Kingdom
Current Conditions -  °F | °C
As of 4:50 PM on Friday 28 Nov 2014 (Local Time) from EGQS Reporting Station
Broken Clouds Broken Clouds  
Wind Chill: 45°   Ceiling: 2600
Heat Index: 48°   Visibility: 6mi
Dew Point: 46°   Wind: 7mph
Humidity: 93%   Direction: 100°E
Pressure: 29.88"   Gusts: NA
Location:  58.12°N, 3.66°W
Report Text: EGQS 281650Z 10006KT 9999 SCT012 BKN026 BKN070 09/08 Q1012 GRN NOSIG
Loading
Personal Weather Stations






























Interactive Weather Map New forecast layout! Learn more

10-Day Weather Forecast

Advertisements
Track Severe Weather on mobile